createdAt,value
2023-02-28T00:00:41.470Z,100819.22
2023-02-28T00:03:09.095Z,100822.53
2023-02-28T00:05:36.765Z,100819.72
2023-02-28T00:08:04.551Z,100819.63
2023-02-28T00:10:33.205Z,100821.28
2023-02-28T00:13:03.285Z,100810.88
2023-02-28T00:15:30.987Z,100810.88
2023-02-28T00:18:00.086Z,100813.69
2023-02-28T00:20:27.999Z,100808.63
2023-02-28T00:22:56.018Z,100815.94
2023-02-28T00:25:26.698Z,100811.66
2023-02-28T00:27:54.354Z,100808.13
2023-02-28T00:30:24.495Z,100809.50
2023-02-28T00:32:52.717Z,100805.84
2023-02-28T00:35:21.721Z,100809.25
2023-02-28T00:37:50.540Z,100810.91
2023-02-28T00:40:18.609Z,100810.91
2023-02-28T00:42:46.197Z,100813.41
2023-02-28T00:45:13.791Z,100810.78
2023-02-28T00:47:41.396Z,100814.44
2023-02-28T00:50:10.643Z,100811.16
2023-02-28T00:52:39.526Z,100810.41
2023-02-28T00:55:07.596Z,100811.91
2023-02-28T00:57:35.188Z,100812.53
2023-02-28T01:00:02.993Z,100812.69
2023-02-28T01:02:30.615Z,100806.59
2023-02-28T01:04:58.734Z,100807.38
2023-02-28T01:07:26.403Z,100809.00
2023-02-28T01:09:56.335Z,100815.44
2023-02-28T01:12:23.874Z,100810.16
2023-02-28T01:14:51.480Z,100812.53
2023-02-28T01:17:19.578Z,100813.19
2023-02-28T01:19:47.191Z,100816.47
2023-02-28T01:22:14.904Z,100806.88
2023-02-28T01:24:43.681Z,100807.09
2023-02-28T01:27:15.372Z,100807.75
2023-02-28T01:29:42.916Z,100808.88
2023-02-28T01:32:10.807Z,100803.84
2023-02-28T01:34:38.668Z,100808.63
2023-02-28T01:37:06.344Z,100805.22
2023-02-28T01:39:34.126Z,100807.13
2023-02-28T01:42:01.674Z,100802.06
2023-02-28T01:45:03.417Z,100805.59
2023-02-28T01:47:35.841Z,100803.84
2023-02-28T01:50:09.409Z,100803.56
2023-02-28T01:52:37.808Z,100796.75
2023-02-28T01:55:09.042Z,100802.56
2023-02-28T01:57:43.459Z,100793.22
2023-02-28T02:00:16.026Z,100804.81
2023-02-28T02:02:51.201Z,100796.34
2023-02-28T02:05:21.800Z,100788.66
2023-02-28T02:07:54.014Z,100790.81
2023-02-28T02:10:24.214Z,100794.47
2023-02-28T02:13:11.009Z,100792.69
2023-02-28T02:15:48.238Z,100787.13
2023-02-28T02:18:25.968Z,100785.63
2023-02-28T02:21:21.664Z,100778.53
2023-02-28T02:24:13.619Z,100777.66
2023-02-28T02:26:57.438Z,100778.53
2023-02-28T02:30:18.829Z,100784.34
2023-02-28T02:33:20.510Z,100774.75
2023-02-28T02:35:56.430Z,100776.25
2023-02-28T02:38:35.189Z,100777.75
2023-02-28T02:41:10.591Z,100781.56
2023-02-28T02:43:42.784Z,100781.28
2023-02-28T02:46:14.152Z,100783.69
2023-02-28T02:48:44.198Z,100793.28
2023-02-28T02:51:17.352Z,100783.31
2023-02-28T02:53:50.080Z,100787.25
2023-02-28T02:56:21.665Z,100785.59
2023-02-28T02:58:51.762Z,100785.31
2023-02-28T03:01:28.732Z,100796.69
2023-02-28T03:03:59.310Z,100795.19
2023-02-28T03:06:28.869Z,100789.63
2023-02-28T03:08:56.596Z,100790.66
2023-02-28T03:11:24.782Z,100795.31
2023-02-28T03:14:22.744Z,100792.91
2023-02-28T03:17:13.032Z,100783.69
2023-02-28T03:19:49.337Z,100790.78
2023-02-28T03:22:39.581Z,100787.13
2023-02-28T03:25:11.534Z,100783.22
2023-02-28T03:27:42.903Z,100781.31
2023-02-28T03:30:18.205Z,100788.50
2023-02-28T03:32:54.848Z,100783.84
2023-02-28T03:35:26.485Z,100787.91
2023-02-28T03:38:02.528Z,100782.97
2023-02-28T03:40:33.844Z,100779.81
2023-02-28T03:43:08.939Z,100779.28
2023-02-28T03:45:40.423Z,100782.56
2023-02-28T03:48:13.764Z,100788.00
2023-02-28T03:50:42.757Z,100778.28
2023-02-28T03:53:15.544Z,100788.41
2023-02-28T03:55:53.481Z,100783.59
2023-02-28T03:58:26.735Z,100785.38
2023-02-28T04:00:57.643Z,100786.09
2023-02-28T04:03:25.483Z,100785.34
2023-02-28T04:05:55.825Z,100785.34
2023-02-28T04:08:24.978Z,100790.41
2023-02-28T04:10:58.084Z,100783.81
2023-02-28T04:13:25.680Z,100778.00
2023-02-28T04:15:53.303Z,100789.25
2023-02-28T04:18:20.910Z,100780.28
2023-02-28T04:20:48.508Z,100782.44
2023-02-28T04:23:16.100Z,100784.19
2023-02-28T04:25:45.175Z,100785.06
2023-02-28T04:28:12.711Z,100783.53
2023-02-28T04:30:41.203Z,100785.34
2023-02-28T04:33:08.825Z,100781.00
2023-02-28T04:35:36.414Z,100784.44
2023-02-28T04:38:04.044Z,100776.47
2023-02-28T04:40:31.650Z,100780.16
2023-02-28T04:43:00.585Z,100782.81
2023-02-28T04:45:31.209Z,100779.25
2023-02-28T04:47:58.827Z,100775.75
2023-02-28T04:50:26.382Z,100779.53
2023-02-28T04:52:53.936Z,100785.84
2023-02-28T04:55:21.446Z,100784.59
2023-02-28T04:57:49.220Z,100782.84
2023-02-28T05:00:18.956Z,100780.03
2023-02-28T05:02:46.561Z,100785.88
2023-02-28T05:05:17.561Z,100789.16
2023-02-28T05:07:45.167Z,100786.13
2023-02-28T05:10:13.391Z,100796.25
2023-02-28T05:12:41.025Z,100790.44
2023-02-28T05:15:14.325Z,100788.91
2023-02-28T05:17:43.574Z,100795.59
2023-02-28T05:20:15.713Z,100795.88
2023-02-28T05:22:45.381Z,100796.00
2023-02-28T05:25:17.307Z,100798.78
2023-02-28T05:27:45.129Z,100797.00
2023-02-28T05:30:14.725Z,100785.50
2023-02-28T05:32:44.550Z,100800.06
2023-02-28T05:35:13.312Z,100794.72
2023-02-28T05:37:41.388Z,100791.44
2023-02-28T05:40:11.228Z,100800.06
2023-02-28T05:42:39.025Z,100796.25
2023-02-28T05:45:08.371Z,100799.50
2023-02-28T05:47:36.198Z,100801.03
2023-02-28T05:50:05.614Z,100795.00
2023-02-28T05:52:33.194Z,100791.59
2023-02-28T05:55:00.698Z,100796.38
2023-02-28T05:57:28.243Z,100795.50
2023-02-28T05:59:55.887Z,100795.50
2023-02-28T06:02:23.502Z,100796.75
2023-02-28T06:04:51.081Z,100796.75
2023-02-28T06:07:20.023Z,100804.56
2023-02-28T06:09:47.554Z,100798.25
2023-02-28T06:12:15.148Z,100796.97
2023-02-28T06:14:42.697Z,100804.31
2023-02-28T06:17:11.150Z,100813.19
2023-02-28T06:19:39.641Z,100809.63
2023-02-28T06:22:07.219Z,100806.31
2023-02-28T06:24:36.114Z,100806.84
2023-02-28T06:27:05.937Z,100810.75
2023-02-28T06:29:33.876Z,100807.56
2023-02-28T06:32:01.533Z,100810.09
2023-02-28T06:34:29.127Z,100811.63
2023-02-28T06:36:56.762Z,100814.41
2023-02-28T06:39:24.361Z,100815.91
2023-02-28T06:41:56.107Z,100825.25
2023-02-28T06:44:25.332Z,100825.53
2023-02-28T06:46:53.005Z,100825.13
2023-02-28T06:49:20.653Z,100830.44
2023-02-28T06:51:48.170Z,100828.03
2023-02-28T06:54:18.339Z,100840.16
2023-02-28T06:56:45.881Z,100842.41
2023-02-28T06:59:15.318Z,100841.78
2023-02-28T07:01:42.928Z,100834.94
2023-02-28T07:04:10.496Z,100842.91
2023-02-28T07:06:38.142Z,100842.28
2023-02-28T07:09:06.029Z,100844.44
2023-02-28T07:11:33.766Z,100849.88
2023-02-28T07:14:01.538Z,100846.44
2023-02-28T07:16:30.627Z,100851.84
2023-02-28T07:18:58.355Z,100852.44
2023-02-28T07:21:26.290Z,100850.66
2023-02-28T07:23:53.890Z,100858.22
2023-02-28T07:26:22.920Z,100857.91
2023-02-28T07:28:51.145Z,100863.69
2023-02-28T07:31:19.443Z,100861.63
2023-02-28T07:33:48.564Z,100862.09
2023-02-28T07:36:19.436Z,100864.88
2023-02-28T07:38:49.046Z,100870.47
2023-02-28T07:41:17.435Z,100865.88
2023-02-28T07:43:45.521Z,100861.22
2023-02-28T07:46:15.942Z,100863.03
2023-02-28T07:48:43.881Z,100859.88
2023-02-28T07:51:13.163Z,100857.34
2023-02-28T07:53:40.792Z,100857.81
2023-02-28T07:56:09.092Z,100863.41
2023-02-28T07:58:36.891Z,100870.66
2023-02-28T08:01:08.885Z,100866.72
2023-02-28T08:03:37.343Z,100873.00
2023-02-28T08:06:05.727Z,100870.84
2023-02-28T08:08:34.743Z,100870.84
2023-02-28T08:11:03.782Z,100875.38
2023-02-28T08:13:32.176Z,100867.38
2023-02-28T08:16:00.000Z,100873.88
2023-02-28T08:18:27.566Z,100879.78
2023-02-28T08:20:55.291Z,100885.34
2023-02-28T08:23:22.819Z,100883.56
2023-02-28T08:25:56.552Z,100883.38
2023-02-28T08:28:26.093Z,100874.00
2023-02-28T08:30:54.745Z,100873.44
2023-02-28T08:33:22.613Z,100868.09
2023-02-28T08:35:50.350Z,100881.22
2023-02-28T08:38:17.963Z,100886.75
2023-02-28T08:40:45.490Z,100895.13
2023-02-28T08:43:14.598Z,100887.16
2023-02-28T08:45:42.408Z,100891.91
2023-02-28T08:48:10.132Z,100884.22
2023-02-28T08:50:37.730Z,100884.66
2023-02-28T08:53:05.278Z,100890.22
2023-02-28T08:55:32.858Z,100893.75
2023-02-28T08:58:02.089Z,100884.19
2023-02-28T09:00:30.958Z,100886.94
2023-02-28T09:02:58.513Z,100885.84
2023-02-28T09:05:26.144Z,100883.66
2023-02-28T09:07:53.708Z,100878.78
2023-02-28T09:10:21.550Z,100881.00
2023-02-28T09:12:49.158Z,100888.53
2023-02-28T09:15:16.799Z,100886.75
2023-02-28T09:17:47.002Z,100892.72
2023-02-28T09:20:15.754Z,100889.84
2023-02-28T09:22:43.303Z,100887.84
2023-02-28T09:25:10.929Z,100889.63
2023-02-28T09:27:38.512Z,100891.81
2023-02-28T09:30:07.229Z,100892.66
2023-02-28T09:32:34.814Z,100886.19
2023-02-28T09:35:03.745Z,100883.94
2023-02-28T09:37:32.110Z,100887.19
2023-02-28T09:39:59.938Z,100881.00
2023-02-28T09:42:35.363Z,100888.31
2023-02-28T09:45:08.666Z,100881.00
2023-02-28T09:47:37.694Z,100882.28
2023-02-28T09:50:19.313Z,100882.75
2023-02-28T09:52:48.984Z,100881.53
2023-02-28T09:55:24.293Z,100890.00
2023-02-28T09:57:53.630Z,100879.63
2023-02-28T10:00:25.361Z,100880.66
2023-02-28T10:03:26.298Z,100881.25
2023-02-28T10:06:00.947Z,100878.88
2023-02-28T10:08:32.359Z,100884.63
2023-02-28T10:11:05.303Z,100878.28
2023-02-28T10:13:37.453Z,100885.41
2023-02-28T10:16:10.287Z,100891.97
2023-02-28T10:18:45.010Z,100885.53
2023-02-28T10:21:22.458Z,100882.75
2023-02-28T10:23:51.527Z,100893.16
2023-02-28T10:26:19.932Z,100896.88
2023-02-28T10:28:47.580Z,100899.59
2023-02-28T10:31:19.423Z,100886.97
2023-02-28T10:33:47.337Z,100901.84
2023-02-28T10:36:18.878Z,100902.72
2023-02-28T10:38:48.165Z,100888.41
2023-02-28T10:41:18.485Z,100890.22
2023-02-28T10:43:46.822Z,100901.38
2023-02-28T10:46:27.136Z,100897.94
2023-02-28T10:49:05.301Z,100891.41
2023-02-28T10:51:40.814Z,100899.06
2023-02-28T10:54:17.969Z,100900.63
2023-02-28T10:56:45.712Z,100894.66
2023-02-28T10:59:30.726Z,100890.25
2023-02-28T11:01:58.830Z,100896.16
2023-02-28T11:04:37.574Z,100896.16
2023-02-28T11:07:08.474Z,100895.97
2023-02-28T11:09:39.897Z,100888.41
2023-02-28T11:12:10.282Z,100890.09
2023-02-28T11:14:49.055Z,100890.06
2023-02-28T11:17:24.987Z,100893.00
2023-02-28T11:19:57.182Z,100885.94
2023-02-28T11:22:30.046Z,100881.41
2023-02-28T11:25:01.508Z,100882.72
2023-02-28T11:27:48.083Z,100881.22
2023-02-28T11:30:36.774Z,100879.25
2023-02-28T11:33:23.328Z,100881.59
2023-02-28T11:35:52.412Z,100880.56
2023-02-28T11:38:21.497Z,100880.94
2023-02-28T11:41:06.912Z,100877.69
2023-02-28T11:43:47.950Z,100868.94
2023-02-28T11:46:25.626Z,100872.78
2023-02-28T11:49:01.209Z,100866.91
2023-02-28T11:51:32.976Z,100866.44
2023-02-28T11:54:17.180Z,100863.81
2023-02-28T11:56:48.786Z,100870.69
2023-02-28T11:59:45.192Z,100868.72
2023-02-28T12:02:25.404Z,100870.06
2023-02-28T12:05:10.107Z,100874.38
2023-02-28T12:07:47.658Z,100864.63
2023-02-28T12:10:23.381Z,100867.03
2023-02-28T12:13:07.405Z,100859.56
2023-02-28T12:15:51.459Z,100869.91
2023-02-28T12:18:32.511Z,100859.03
2023-02-28T12:21:06.594Z,100855.31
2023-02-28T12:23:54.657Z,100851.03
2023-02-28T12:26:33.836Z,100837.00
2023-02-28T12:29:06.647Z,100843.38
2023-02-28T12:31:38.424Z,100847.44
2023-02-28T12:34:11.870Z,100844.22
2023-02-28T12:36:40.717Z,100837.34
2023-02-28T12:39:14.917Z,100840.59
2023-02-28T12:41:47.803Z,100839.34
2023-02-28T12:44:21.096Z,100830.22
2023-02-28T12:46:52.471Z,100836.00
2023-02-28T12:49:26.696Z,100838.75
2023-02-28T12:51:54.968Z,100824.44
2023-02-28T12:54:29.026Z,100825.13
2023-02-28T12:57:05.796Z,100811.56
2023-02-28T12:59:38.727Z,100824.72
2023-02-28T13:03:00.587Z,100814.50
2023-02-28T13:05:47.266Z,100821.38
2023-02-28T13:08:40.102Z,100811.84
2023-02-28T13:11:21.007Z,100821.72
2023-02-28T13:13:58.638Z,100810.78
2023-02-28T13:16:26.292Z,100814.22
2023-02-28T13:19:11.323Z,100814.19
2023-02-28T13:21:46.289Z,100807.31
2023-02-28T13:24:43.456Z,100807.06
2023-02-28T13:27:36.213Z,100809.88
2023-02-28T13:30:42.729Z,100808.50
2023-02-28T13:33:29.067Z,100797.91
2023-02-28T13:36:12.985Z,100808.47
2023-02-28T13:38:42.797Z,100798.50
2023-02-28T13:41:48.842Z,100805.00
2023-02-28T13:44:19.216Z,100810.19
2023-02-28T13:47:24.678Z,100797.34
2023-02-28T13:49:54.344Z,100811.38
2023-02-28T13:52:25.426Z,100807.75
2023-02-28T13:55:02.432Z,100812.63
2023-02-28T13:57:44.415Z,100802.47
2023-02-28T14:00:25.214Z,100807.78
2023-02-28T14:03:14.087Z,100800.19
2023-02-28T14:05:42.139Z,100810.41
2023-02-28T14:08:17.855Z,100807.03
2023-02-28T14:10:49.569Z,100805.63
2023-02-28T14:13:46.411Z,100805.38
2023-02-28T14:16:16.205Z,100799.38
2023-02-28T14:18:51.822Z,100813.84
2023-02-28T14:21:26.613Z,100804.53
2023-02-28T14:24:18.592Z,100803.09
2023-02-28T14:27:15.721Z,100800.97
2023-02-28T14:30:17.229Z,100796.50
2023-02-28T14:32:53.099Z,100800.47
2023-02-28T14:35:47.931Z,100793.09
2023-02-28T14:38:22.153Z,100786.84
2023-02-28T14:40:53.213Z,100793.53
2023-02-28T14:43:23.758Z,100793.03
2023-02-28T14:45:56.034Z,100790.63
2023-02-28T14:48:26.141Z,100801.44
2023-02-28T14:50:55.830Z,100802.97
2023-02-28T14:53:27.054Z,100799.22
2023-02-28T14:55:58.251Z,100793.28
2023-02-28T14:58:29.361Z,100796.69
2023-02-28T15:01:00.794Z,100787.78
2023-02-28T15:03:34.063Z,100791.84
2023-02-28T15:06:03.044Z,100792.38
2023-02-28T15:08:35.938Z,100786.38
2023-02-28T15:11:06.858Z,100792.69
2023-02-28T15:13:39.630Z,100784.34
2023-02-28T15:16:13.757Z,100787.06
2023-02-28T15:18:48.986Z,100794.16
2023-02-28T15:21:19.267Z,100799.56
2023-02-28T15:23:51.241Z,100799.50
2023-02-28T15:26:22.747Z,100799.06
2023-02-28T15:28:53.195Z,100795.72
2023-02-28T15:31:27.748Z,100801.75
2023-02-28T15:33:56.791Z,100800.41
2023-02-28T15:36:28.750Z,100799.25
2023-02-28T15:39:01.591Z,100797.09
2023-02-28T15:41:39.886Z,100792.69
2023-02-28T15:44:26.778Z,100792.22
2023-02-28T15:47:03.590Z,100793.03
2023-02-28T15:49:45.061Z,100791.22
2023-02-28T15:52:17.640Z,100795.06
2023-02-28T15:54:46.673Z,100798.09
2023-02-28T15:57:19.264Z,100792.38
2023-02-28T15:59:53.018Z,100792.50
2023-02-28T16:02:24.218Z,100787.28
2023-02-28T16:05:05.089Z,100788.66
2023-02-28T16:07:33.209Z,100794.97
2023-02-28T16:10:01.569Z,100794.34
2023-02-28T16:12:31.878Z,100801.47
2023-02-28T16:15:03.736Z,100795.13
2023-02-28T16:17:36.660Z,100799.00
2023-02-28T16:20:13.923Z,100795.16
2023-02-28T16:22:42.879Z,100798.13
2023-02-28T16:25:13.911Z,100801.59
2023-02-28T16:27:42.247Z,100801.88
2023-02-28T16:30:19.917Z,100803.81
2023-02-28T16:32:50.025Z,100805.59
2023-02-28T16:35:18.928Z,100806.09
2023-02-28T16:37:47.263Z,100807.28
2023-02-28T16:40:16.887Z,100808.19
2023-02-28T16:42:47.257Z,100816.97
2023-02-28T16:45:21.105Z,100817.22
2023-02-28T16:47:50.785Z,100816.63
2023-02-28T16:50:20.723Z,100821.59
2023-02-28T16:52:48.783Z,100825.78
2023-02-28T16:55:16.882Z,100827.88
2023-02-28T16:57:46.011Z,100828.25
2023-02-28T17:00:15.884Z,100830.28
2023-02-28T17:02:43.671Z,100832.06
2023-02-28T17:05:15.040Z,100835.84
2023-02-28T17:07:44.831Z,100833.59
2023-02-28T17:10:18.320Z,100838.09
2023-02-28T17:12:46.357Z,100838.59
2023-02-28T17:15:15.903Z,100843.69
2023-02-28T17:17:44.829Z,100843.06
2023-02-28T17:20:16.322Z,100852.03
2023-02-28T17:22:44.111Z,100853.53
2023-02-28T17:25:12.870Z,100857.88
2023-02-28T17:27:40.555Z,100855.75
2023-02-28T17:30:16.948Z,100859.31
2023-02-28T17:32:44.743Z,100855.47
2023-02-28T17:35:12.680Z,100868.53
2023-02-28T17:37:42.100Z,100865.38
2023-02-28T17:40:15.988Z,100869.22
2023-02-28T17:42:43.658Z,100874.78
2023-02-28T17:45:12.301Z,100874.50
2023-02-28T17:47:40.853Z,100873.78
2023-02-28T17:50:13.457Z,100876.81
2023-02-28T17:52:42.334Z,100886.31
2023-02-28T17:55:11.516Z,100885.13
2023-02-28T17:57:39.349Z,100884.50
2023-02-28T18:00:08.549Z,100884.84
2023-02-28T18:02:39.939Z,100880.03
2023-02-28T18:05:08.987Z,100880.03
2023-02-28T18:07:38.291Z,100879.16
2023-02-28T18:10:08.878Z,100878.28
2023-02-28T18:12:36.430Z,100876.97
2023-02-28T18:15:04.280Z,100872.81
2023-02-28T18:17:31.809Z,100879.25
2023-02-28T18:20:00.181Z,100880.03
2023-02-28T18:22:27.757Z,100884.81
2023-02-28T18:24:55.329Z,100877.88
2023-02-28T18:27:24.262Z,100879.97
2023-02-28T18:29:52.402Z,100886.19
2023-02-28T18:32:20.037Z,100880.00
2023-02-28T18:34:47.671Z,100885.34
2023-02-28T18:37:16.045Z,100885.13
2023-02-28T18:39:43.606Z,100879.81
2023-02-28T18:42:11.195Z,100884.28
2023-02-28T18:44:40.780Z,100889.13
2023-02-28T18:47:08.506Z,100882.06
2023-02-28T18:49:37.871Z,100886.16
2023-02-28T18:52:05.705Z,100881.63
2023-02-28T18:54:33.300Z,100885.63
2023-02-28T18:57:00.885Z,100886.94
2023-02-28T18:59:28.559Z,100889.19
2023-02-28T19:01:58.392Z,100892.28
2023-02-28T19:04:25.975Z,100885.84
2023-02-28T19:06:53.508Z,100890.38
2023-02-28T19:09:21.381Z,100891.81
2023-02-28T19:11:49.437Z,100890.72
2023-02-28T19:14:18.180Z,100898.47
2023-02-28T19:16:47.150Z,100900.00
2023-02-28T19:19:16.207Z,100897.34
2023-02-28T19:21:43.933Z,100896.47
2023-02-28T19:24:12.274Z,100897.13
2023-02-28T19:30:54.813Z,100902.84
2023-02-28T19:33:22.426Z,100900.84
2023-02-28T19:35:51.412Z,100900.16
2023-02-28T19:38:19.195Z,100903.03
2023-02-28T19:40:46.914Z,100899.16
2023-02-28T19:43:14.488Z,100897.06
2023-02-28T19:45:42.194Z,100894.81
2023-02-28T19:48:09.842Z,100895.91
2023-02-28T19:50:38.466Z,100891.13
2023-02-28T19:53:07.412Z,100899.84
2023-02-28T19:55:35.012Z,100895.59
2023-02-28T19:58:02.653Z,100896.22
2023-02-28T20:00:30.202Z,100892.00
2023-02-28T20:02:57.729Z,100889.78
2023-02-28T20:05:25.281Z,100895.25
2023-02-28T20:07:52.884Z,100893.25
2023-02-28T20:10:21.830Z,100897.19
2023-02-28T20:12:49.465Z,100897.59
2023-02-28T20:15:17.316Z,100891.28
2023-02-28T20:17:46.587Z,100893.34
2023-02-28T20:20:14.253Z,100896.41
2023-02-28T20:22:41.777Z,100887.19
2023-02-28T20:25:11.408Z,100897.88
2023-02-28T20:27:40.343Z,100891.41
2023-02-28T20:30:09.564Z,100892.28
2023-02-28T20:32:38.879Z,100886.31
2023-02-28T20:35:08.568Z,100886.81
2023-02-28T20:37:36.559Z,100884.94
2023-02-28T20:40:04.927Z,100880.50
2023-02-28T20:42:32.742Z,100882.81
2023-02-28T20:45:01.676Z,100890.66
2023-02-28T20:47:29.340Z,100885.38
2023-02-28T20:49:56.976Z,100888.19
2023-02-28T20:52:24.580Z,100886.81
2023-02-28T20:54:52.860Z,100891.75
2023-02-28T20:57:20.656Z,100892.16
2023-02-28T20:59:48.226Z,100890.78
2023-02-28T21:02:21.222Z,100888.00
2023-02-28T21:04:48.832Z,100888.00
2023-02-28T21:07:16.388Z,100893.94
2023-02-28T21:09:43.986Z,100896.59
2023-02-28T21:12:11.631Z,100891.53
2023-02-28T21:14:39.245Z,100886.22
2023-02-28T21:17:10.409Z,100892.44
2023-02-28T21:19:39.334Z,100898.00
2023-02-28T21:22:06.999Z,100890.66
2023-02-28T21:24:34.583Z,100887.78
2023-02-28T21:27:02.153Z,100896.09
2023-02-28T21:29:29.761Z,100894.84
2023-02-28T21:31:57.498Z,100886.66
2023-02-28T21:34:26.920Z,100886.25
2023-02-28T21:36:55.870Z,100890.94
2023-02-28T21:39:28.758Z,100888.03
2023-02-28T21:42:03.399Z,100890.19
2023-02-28T21:44:32.353Z,100887.28
2023-02-28T21:47:02.720Z,100885.28
2023-02-28T21:49:30.660Z,100891.81
2023-02-28T21:51:59.898Z,100888.28
2023-02-28T21:54:27.757Z,100882.75
2023-02-28T21:56:56.378Z,100880.31
2023-02-28T21:59:24.009Z,100882.97
2023-02-28T22:01:51.930Z,100882.84
2023-02-28T22:04:21.952Z,100884.00
2023-02-28T22:06:52.454Z,100889.56
2023-02-28T22:09:21.894Z,100885.50
2023-02-28T22:11:49.578Z,100888.56
2023-02-28T22:14:17.187Z,100881.47
2023-02-28T22:16:54.294Z,100887.78
2023-02-28T22:19:24.080Z,100885.75
2023-02-28T22:21:53.655Z,100884.72
2023-02-28T22:24:24.236Z,100885.34
2023-02-28T22:26:52.824Z,100891.03
2023-02-28T22:29:21.036Z,100883.19
2023-02-28T22:31:48.817Z,100880.66
2023-02-28T22:34:16.437Z,100881.66
2023-02-28T22:36:44.927Z,100879.66
2023-02-28T22:39:13.295Z,100882.03
2023-02-28T22:41:42.208Z,100875.84
2023-02-28T22:44:09.791Z,100885.69
2023-02-28T22:46:37.842Z,100868.50
2023-02-28T22:49:06.883Z,100878.09
2023-02-28T22:51:35.492Z,100874.56
2023-02-28T22:54:04.235Z,100878.72
2023-02-28T22:56:32.170Z,100868.97
2023-02-28T22:59:02.099Z,100868.84
2023-02-28T23:01:32.801Z,100877.03
2023-02-28T23:04:02.052Z,100880.34
2023-02-28T23:06:31.581Z,100880.34
2023-02-28T23:09:02.032Z,100867.81
2023-02-28T23:11:31.972Z,100877.28
2023-02-28T23:14:01.216Z,100885.63
2023-02-28T23:16:31.013Z,100879.69
2023-02-28T23:19:00.126Z,100881.34
2023-02-28T23:21:28.188Z,100876.78
2023-02-28T23:23:56.259Z,100883.34
2023-02-28T23:26:23.856Z,100879.06
2023-02-28T23:28:51.616Z,100883.84
2023-02-28T23:31:21.145Z,100880.53
2023-02-28T23:33:49.389Z,100882.31
2023-02-28T23:36:17.318Z,100885.47
2023-02-28T23:38:48.268Z,100882.81
2023-02-28T23:41:16.558Z,100884.06
2023-02-28T23:43:44.397Z,100882.31
2023-02-28T23:46:13.420Z,100887.06
2023-02-28T23:48:42.700Z,100887.84
2023-02-28T23:51:11.776Z,100885.03
2023-02-28T23:53:41.662Z,100885.78
2023-02-28T23:56:11.603Z,100891.31
2023-02-28T23:58:39.360Z,100884.22
